Time;durP1;ratioP1;P1;durP2;ratioP2;P2;SDS_P1;SDS_P2;PMS_P1;PMS_P2;Temp;Humidity;BMP_temperature;BMP_pressure;BME280_temperature;BME280_humidity;BME280_pressure;Samples;Min_cycle;Max_cycle;Signal;HPM_P1;HPM_P2
2022/05/12 00:01:47;;;;;;;7.10;1.30;;;12.10;99.90;;;;;;5012473;28;20069;-69
2022/05/12 00:04:12;;;;;;;6.67;1.13;;;12.00;99.90;;;;;;5013597;28;20050;-70
2022/05/12 00:06:38;;;;;;;7.03;1.27;;;12.00;99.90;;;;;;5013430;28;20046;-70
2022/05/12 00:09:04;;;;;;;5.83;1.27;;;12.00;99.90;;;;;;5018736;28;20132;-69
2022/05/12 00:11:30;;;;;;;8.07;1.60;;;;;;;;;;5018998;28;20037;-70
2022/05/12 00:13:57;;;;;;;6.53;1.73;;;12.00;99.90;;;;;;5020030;28;20049;-69
2022/05/12 00:16:22;;;;;;;6.97;1.53;;;12.00;99.90;;;;;;5019635;28;20324;-70
2022/05/12 00:18:48;;;;;;;6.40;2.00;;;11.90;99.90;;;;;;5019942;28;20345;-69
2022/05/12 00:21:14;;;;;;;5.70;1.50;;;11.90;99.90;;;;;;5020016;28;20045;-69
2022/05/12 00:23:40;;;;;;;7.13;2.00;;;11.90;99.90;;;;;;5020519;28;20046;-69
2022/05/12 00:26:06;;;;;;;5.43;1.50;;;11.90;99.90;;;;;;5018635;28;20641;-70
2022/05/12 00:28:32;;;;;;;5.70;1.70;;;11.80;99.90;;;;;;5018901;28;20132;-70
2022/05/12 00:30:58;;;;;;;6.97;1.80;;;11.80;99.90;;;;;;5019937;28;20046;-70
2022/05/12 00:33:27;;;;;;;5.67;1.30;;;11.80;99.90;;;;;;5019895;28;20296;-70
2022/05/12 00:35:55;;;;;;;7.37;1.20;;;11.80;99.90;;;;;;5051820;28;20293;-70
2022/05/12 00:38:21;;;;;;;6.93;1.60;;;11.80;99.90;;;;;;5019740;28;20769;-70
2022/05/12 00:40:47;;;;;;;6.33;1.57;;;11.70;99.90;;;;;;5020378;28;20338;-69
2022/05/12 00:43:35;;;;;;;7.60;1.40;;;11.70;99.90;;;;;;5020503;28;20050;-70
2022/05/12 00:46:02;;;;;;;5.17;1.30;;;11.70;99.90;;;;;;5019678;28;20281;-70
2022/05/12 00:48:28;;;;;;;4.87;1.33;;;11.70;99.90;;;;;;5019550;28;20327;-70
2022/05/12 00:50:54;;;;;;;4.43;1.10;;;11.60;99.90;;;;;;5019437;28;20328;-70
2022/05/12 00:53:20;;;;;;;10.80;1.30;;;11.60;99.90;;;;;;5002636;28;20061;-70
2022/05/12 00:55:47;;;;;;;5.30;1.30;;;11.50;99.90;;;;;;5018511;28;20277;-70
2022/05/12 00:58:17;;;;;;;4.60;1.20;;;11.50;99.90;;;;;;5020280;28;20291;-73
2022/05/12 01:00:43;;;;;;;7.90;2.03;;;11.50;99.90;;;;;;5019933;28;20280;-70
2022/05/12 01:03:18;;;;;;;3.93;1.30;;;11.50;99.90;;;;;;5018654;28;20625;-70
2022/05/12 01:05:44;;;;;;;4.97;1.23;;;11.50;99.90;;;;;;5019240;28;20281;-70
2022/05/12 01:08:13;;;;;;;10.17;1.40;;;11.50;99.90;;;;;;5019596;28;20048;-69
2022/05/12 01:10:39;;;;;;;6.03;1.50;;;11.50;99.90;;;;;;5020576;28;20280;-70
2022/05/12 01:13:05;;;;;;;6.83;1.80;;;11.50;99.90;;;;;;5002349;28;20359;-70
2022/05/12 01:15:31;;;;;;;6.27;1.30;;;11.40;99.90;;;;;;5020402;28;20295;-70
2022/05/12 01:18:17;;;;;;;7.67;1.60;;;11.40;99.90;;;;;;5019319;28;20791;-70
2022/05/12 01:20:44;;;;;;;7.10;1.57;;;11.40;99.90;;;;;;5017713;28;20335;-70
2022/05/12 01:23:25;;;;;;;5.40;1.60;;;11.30;99.90;;;;;;5016314;28;20840;-70
2022/05/12 01:25:57;;;;;;;5.80;1.97;;;11.30;99.90;;;;;;5015952;28;20319;-70
2022/05/12 01:28:24;;;;;;;9.57;1.90;;;11.30;99.90;;;;;;5016715;28;20281;-70
2022/05/12 01:30:49;;;;;;;7.93;2.20;;;11.20;99.90;;;;;;5016385;28;20756;-70
2022/05/12 01:33:15;;;;;;;7.80;1.97;;;11.20;99.90;;;;;;5016476;28;20367;-70
2022/05/12 01:35:41;;;;;;;12.20;1.90;;;11.20;99.90;;;;;;5016636;28;20418;-70
2022/05/12 01:38:07;;;;;;;7.67;2.70;;;11.20;99.90;;;;;;5016320;28;20042;-70
2022/05/12 01:40:32;;;;;;;8.67;2.30;;;11.20;99.90;;;;;;5015954;28;20500;-70
2022/05/12 01:42:59;;;;;;;8.93;2.73;;;11.20;99.90;;;;;;5016480;28;20050;-70
2022/05/12 01:45:25;;;;;;;7.07;2.33;;;11.10;99.90;;;;;;5015960;28;20150;-70
2022/05/12 01:47:51;;;;;;;7.67;2.50;;;11.10;99.90;;;;;;5014905;28;20324;-70
2022/05/12 01:50:18;;;;;;;11.43;3.00;;;11.10;99.90;;;;;;5015792;28;20281;-70
2022/05/12 01:52:44;;;;;;;11.20;3.33;;;11.00;99.90;;;;;;5015871;28;20632;-70
2022/05/12 01:55:16;;;;;;;8.73;2.40;;;11.00;99.90;;;;;;5015323;28;20304;-70
2022/05/12 01:57:43;;;;;;;8.87;2.70;;;11.00;99.90;;;;;;5016332;28;20281;-70
2022/05/12 02:00:13;;;;;;;10.97;3.03;;;11.00;99.90;;;;;;5015561;28;20311;-70
2022/05/12 02:02:39;;;;;;;10.20;2.47;;;11.00;99.90;;;;;;5015545;28;20287;-70
2022/05/12 02:05:09;;;;;;;9.43;2.70;;;10.90;99.90;;;;;;5047409;28;20377;-70
2022/05/12 02:07:37;;;;;;;11.03;2.47;;;10.90;99.90;;;;;;5047589;28;20339;-70
2022/05/12 02:10:05;;;;;;;9.33;2.70;;;10.90;99.90;;;;;;5015456;28;20277;-70
2022/05/12 02:12:31;;;;;;;11.07;3.03;;;10.90;99.90;;;;;;5014452;28;20296;-70
2022/05/12 02:14:56;;;;;;;9.10;3.37;;;10.90;99.90;;;;;;5015847;28;20617;-70
2022/05/12 02:17:22;;;;;;;8.70;2.97;;;10.90;99.90;;;;;;5015602;28;20096;-70
2022/05/12 02:19:48;;;;;;;8.50;2.60;;;10.90;99.90;;;;;;5015277;28;20050;-70
2022/05/12 02:22:13;;;;;;;8.47;2.70;;;10.90;99.90;;;;;;5015312;28;20041;-70
2022/05/12 02:24:39;;;;;;;11.87;2.73;;;10.90;99.90;;;;;;5014923;28;20045;-70
2022/05/12 02:27:05;;;;;;;8.43;2.77;;;10.90;99.90;;;;;;5015309;28;20057;-70
2022/05/12 02:29:31;;;;;;;8.50;2.77;;;10.80;99.90;;;;;;5014721;28;20042;-70
2022/05/12 02:31:56;;;;;;;8.13;2.47;;;10.90;99.90;;;;;;5014993;28;20100;-70
2022/05/12 02:34:22;;;;;;;9.10;2.50;;;10.80;99.90;;;;;;4997769;28;20496;-70
2022/05/12 02:36:59;;;;;;;8.80;3.33;;;10.80;99.90;;;;;;5014965;28;20052;-70
2022/05/12 02:39:32;;;;;;;11.67;3.10;;;10.80;99.90;;;;;;5014902;28;20121;-71
2022/05/12 02:41:57;;;;;;;8.30;3.00;;;10.80;99.90;;;;;;5015111;28;20312;-70
2022/05/12 02:44:23;;;;;;;9.70;2.70;;;10.80;99.90;;;;;;5014847;28;20280;-70
2022/05/12 02:46:49;;;;;;;8.53;2.80;;;10.80;99.90;;;;;;5014797;28;20046;-70
2022/05/12 02:49:15;;;;;;;11.03;2.80;;;10.80;99.90;;;;;;5014807;28;20041;-70
2022/05/12 02:51:43;;;;;;;12.33;3.20;;;10.80;99.90;;;;;;5013761;28;20394;-70
2022/05/12 02:54:12;;;;;;;10.07;3.17;;;10.70;99.90;;;;;;5014988;28;20057;-69
2022/05/12 02:56:39;;;;;;;11.20;3.07;;;10.80;99.90;;;;;;5014587;28;20289;-70
2022/05/12 02:59:08;;;;;;;7.90;2.80;;;10.80;99.90;;;;;;5013726;28;20311;-70
2022/05/12 03:01:34;;;;;;;10.83;3.10;;;10.80;99.90;;;;;;5014474;28;20292;-70
2022/05/12 03:04:01;;;;;;;10.70;3.37;;;10.80;99.90;;;;;;5014159;28;20749;-70
2022/05/12 03:06:27;;;;;;;11.37;2.93;;;10.80;99.90;;;;;;5014616;28;20827;-69
2022/05/12 03:08:53;;;;;;;7.50;2.90;;;10.80;99.90;;;;;;5047282;28;20340;-69
2022/05/12 03:11:19;;;;;;;6.93;3.07;;;10.70;99.90;;;;;;5014919;28;20327;-70
2022/05/12 03:13:46;;;;;;;11.17;3.03;;;10.70;99.90;;;;;;5014267;28;20052;-70
2022/05/12 03:16:13;;;;;;;7.43;3.13;;;10.70;99.90;;;;;;5014160;28;20339;-71
2022/05/12 03:18:39;;;;;;;9.70;3.37;;;10.70;99.90;;;;;;5014142;28;20293;-70
2022/05/12 03:21:05;;;;;;;10.97;3.93;;;10.70;99.90;;;;;;5013444;28;20375;-70
2022/05/12 03:23:31;;;;;;;11.53;3.33;;;10.70;99.90;;;;;;5012984;28;20284;-70
2022/05/12 03:25:57;;;;;;;10.97;3.80;;;10.70;99.90;;;;;;5012794;28;20293;-70
2022/05/12 03:28:24;;;;;;;10.67;4.03;;;10.60;99.90;;;;;;5012526;28;20289;-70
2022/05/12 03:30:50;;;;;;;10.60;3.60;;;10.60;99.90;;;;;;5014065;28;20350;-70
2022/05/12 03:33:16;;;;;;;13.20;4.67;;;10.60;99.90;;;;;;5012815;28;20649;-70
2022/05/12 03:35:42;;;;;;;13.47;3.43;;;10.50;99.90;;;;;;5013937;28;20281;-70
2022/05/12 03:38:07;;;;;;;10.47;4.10;;;10.50;99.90;;;;;;5012762;28;20287;-70
2022/05/12 03:40:33;;;;;;;10.00;4.50;;;10.50;99.90;;;;;;5045558;28;20041;-70
2022/05/12 03:42:59;;;;;;;13.10;4.60;;;10.60;99.90;;;;;;5013010;28;20049;-71
2022/05/12 03:45:29;;;;;;;12.27;4.47;;;10.50;99.90;;;;;;5014399;28;20139;-70
2022/05/12 03:47:57;;;;;;;11.87;4.37;;;10.50;99.90;;;;;;5013735;28;20100;-71
2022/05/12 03:50:25;;;;;;;12.17;4.37;;;10.50;99.90;;;;;;5013477;28;20799;-70
2022/05/12 03:52:52;;;;;;;9.67;4.50;;;10.50;99.90;;;;;;5013944;28;20284;-70
2022/05/12 03:55:21;;;;;;;11.50;4.70;;;10.60;99.90;;;;;;5013679;28;20281;-70
2022/05/12 03:57:51;;;;;;;13.17;4.17;;;10.60;99.90;;;;;;5013641;28;20285;-70
2022/05/12 04:00:21;;;;;;;17.07;4.33;;;10.60;99.90;;;;;;5013828;28;20340;-70
2022/05/12 04:02:47;;;;;;;14.93;4.83;;;10.60;99.90;;;;;;5014207;28;20273;-70
2022/05/12 04:05:13;;;;;;;11.40;4.27;;;10.60;99.90;;;;;;5012568;28;20316;-70
2022/05/12 04:07:43;;;;;;;12.83;3.80;;;10.60;99.90;;;;;;5013518;28;20041;-70
2022/05/12 04:10:11;;;;;;;11.70;4.90;;;10.60;99.90;;;;;;5013598;28;20281;-70
2022/05/12 04:12:37;;;;;;;14.47;4.20;;;10.60;99.90;;;;;;5013963;28;20641;-71
2022/05/12 04:15:04;;;;;;;13.63;4.33;;;10.60;99.90;;;;;;5013534;28;20291;-71
2022/05/12 04:17:30;;;;;;;13.63;5.20;;;10.70;99.90;;;;;;5013174;28;20493;-71
2022/05/12 04:19:55;;;;;;;14.00;4.83;;;10.70;99.90;;;;;;5012529;28;20328;-71
2022/05/12 04:22:21;;;;;;;12.30;5.20;;;10.70;99.90;;;;;;5013937;28;20452;-71
2022/05/12 04:24:47;;;;;;;12.53;4.83;;;10.70;99.90;;;;;;5013288;28;20057;-71
2022/05/12 04:27:13;;;;;;;15.97;4.97;;;10.70;99.90;;;;;;5013380;28;20050;-71
2022/05/12 04:29:44;;;;;;;10.30;3.73;;;10.70;99.90;;;;;;5014131;28;20354;-71
2022/05/12 04:32:10;;;;;;;9.63;4.10;;;10.80;99.90;;;;;;5013449;28;20807;-69
2022/05/12 04:37:31;;;;;;;15.93;5.25;;;10.80;99.90;;;;;;5013298;28;20347;-68
2022/05/12 04:40:08;;;;;;;12.43;5.00;;;10.90;99.90;;;;;;5045307;28;20097;-69
2022/05/12 04:42:34;;;;;;;13.80;5.23;;;10.90;99.90;;;;;;5013226;28;20289;-69
2022/05/12 04:45:00;;;;;;;12.97;4.40;;;10.90;99.90;;;;;;5013100;28;20292;-69
2022/05/12 04:47:26;;;;;;;10.93;4.33;;;10.90;99.90;;;;;;5013276;28;20317;-69
2022/05/12 04:49:52;;;;;;;8.63;3.70;;;11.00;99.90;;;;;;5013650;28;20485;-69
2022/05/12 04:52:17;;;;;;;17.10;5.20;;;11.00;99.90;;;;;;5013447;28;20068;-68
2022/05/12 04:54:43;;;;;;;15.00;6.00;;;11.10;99.90;;;;;;5016535;28;20453;-69
2022/05/12 04:57:09;;;;;;;13.37;5.33;;;11.10;99.90;;;;;;5017146;28;20501;-69
2022/05/12 04:59:34;;;;;;;13.43;5.43;;;11.10;99.90;;;;;;5016741;28;20425;-69
2022/05/12 05:02:00;;;;;;;8.17;4.20;;;11.20;99.90;;;;;;5017513;28;20120;-69
2022/05/12 05:04:26;;;;;;;13.43;5.50;;;11.20;99.90;;;;;;5015706;28;20053;-69
2022/05/12 05:06:52;;;;;;;15.60;5.63;;;11.30;99.90;;;;;;5016648;28;20284;-69
2022/05/12 05:09:18;;;;;;;8.53;4.27;;;11.40;99.90;;;;;;5015388;28;20045;-69
2022/05/12 05:11:43;;;;;;;13.07;4.20;;;11.50;99.90;;;;;;5016598;28;20046;-69
2022/05/12 05:14:10;;;;;;;13.23;4.97;;;;;;;;;;5016499;28;20050;-69
2022/05/12 05:16:36;;;;;;;15.47;5.23;;;11.70;99.90;;;;;;5016528;28;20042;-69
2022/05/12 05:19:02;;;;;;;12.03;5.00;;;11.80;99.90;;;;;;5016312;28;20767;-69
2022/05/12 05:21:28;;;;;;;13.47;4.60;;;11.90;99.90;;;;;;5016360;28;20277;-69
2022/05/12 05:23:54;;;;;;;10.23;5.20;;;12.00;99.90;;;;;;5016286;28;20882;-69
2022/05/12 05:26:19;;;;;;;15.57;5.10;;;12.10;99.90;;;;;;5014938;28;20384;-69
2022/05/12 05:28:45;;;;;;;13.67;4.80;;;12.20;99.90;;;;;;5016690;28;20097;-70
2022/05/12 05:31:11;;;;;;;12.17;4.00;;;12.40;99.90;;;;;;5015438;28;20188;-69
2022/05/12 05:33:37;;;;;;;14.27;4.83;;;12.50;99.90;;;;;;5015235;28;20050;-69
2022/05/12 05:36:03;;;;;;;10.40;4.23;;;12.70;99.90;;;;;;5016676;28;20378;-69
2022/05/12 05:38:29;;;;;;;14.03;4.83;;;12.90;99.90;;;;;;5014773;28;20054;-69
2022/05/12 05:40:54;;;;;;;9.67;4.27;;;13.00;99.90;;;;;;5015764;28;20291;-69
2022/05/12 05:43:21;;;;;;;11.03;4.03;;;;;;;;;;5016068;28;20052;-69
2022/05/12 05:45:47;;;;;;;12.30;4.17;;;13.50;99.90;;;;;;5015927;28;20053;-70
2022/05/12 05:48:13;;;;;;;8.37;3.40;;;14.30;99.90;;;;;;5016445;28;20283;-70
2022/05/12 05:53:28;;;;;;;9.57;3.27;;;17.10;99.90;;;;;;5015873;28;20053;-70
2022/05/12 05:55:56;;;;;;;11.83;3.40;;;18.40;99.90;;;;;;5016804;28;20283;-70
2022/05/12 05:58:23;;;;;;;10.27;3.20;;;19.50;99.90;;;;;;5015737;28;20409;-70
2022/05/12 06:00:50;;;;;;;10.50;2.80;;;;;;;;;;5015658;28;20046;-70
2022/05/12 06:03:16;;;;;;;10.93;3.13;;;;;;;;;;5014501;28;20050;-70
2022/05/12 06:05:42;;;;;;;8.33;2.70;;;22.20;99.90;;;;;;5014704;28;20561;-70
2022/05/12 06:08:10;;;;;;;12.40;3.77;;;22.70;99.90;;;;;;5015552;28;20049;-70
2022/05/12 06:10:37;;;;;;;8.93;2.97;;;23.40;98.80;;;;;;5015942;28;20390;-70
2022/05/12 06:13:03;;;;;;;8.33;3.50;;;23.90;94.30;;;;;;5015098;28;20077;-71
2022/05/12 06:15:29;;;;;;;8.33;2.97;;;24.40;90.00;;;;;;5014726;28;20107;-71
2022/05/12 06:17:55;;;;;;;9.60;2.50;;;24.90;82.00;;;;;;5015382;28;20394;-71
2022/05/12 06:20:22;;;;;;;9.07;2.40;;;;;;;;;;5015280;28;20081;-71
2022/05/12 06:22:48;;;;;;;8.13;2.57;;;;;;;;;;5015304;28;20452;-71
2022/05/12 06:25:16;;;;;;;10.83;2.83;;;25.80;61.30;;;;;;5015115;28;20064;-70
2022/05/12 06:27:43;;;;;;;12.37;2.40;;;26.20;60.00;;;;;;5015159;28;20046;-70
2022/05/12 06:30:11;;;;;;;11.13;2.60;;;26.50;57.10;;;;;;5013899;28;20473;-71
2022/05/12 06:32:38;;;;;;;11.80;2.83;;;26.70;55.50;;;;;;5015101;28;20053;-71
2022/05/12 06:35:05;;;;;;;9.87;2.83;;;26.90;53.80;;;;;;5015545;28;20053;-72
2022/05/12 06:37:32;;;;;;;8.90;2.40;;;27.30;52.40;;;;;;5014974;28;20069;-72
2022/05/12 06:39:58;;;;;;;10.20;2.53;;;;;;;;;;5014862;28;20395;-72
2022/05/12 06:42:24;;;;;;;8.80;3.07;;;;;;;;;;5014922;28;20133;-72
2022/05/12 06:44:50;;;;;;;11.60;3.13;;;27.80;44.30;;;;;;5014858;28;20046;-71
2022/05/12 06:47:16;;;;;;;10.77;2.83;;;;;;;;;;5014795;28;20056;-72
2022/05/12 06:49:43;;;;;;;11.02;2.95;;;27.90;84.30;;;;;;5014771;28;20107;-71
2022/05/12 06:52:10;;;;;;;9.05;2.90;;;28.50;79.60;;;;;;5014742;28;20054;-71
2022/05/12 06:54:36;;;;;;;10.32;2.90;;;;;;;;;;5013976;28;20449;-72
2022/05/12 06:57:03;;;;;;;11.25;2.97;;;29.00;70.40;;;;;;5014610;28;20054;-72
2022/05/12 06:59:29;;;;;;;12.00;3.25;;;29.00;54.80;;;;;;5015082;28;20034;-74
2022/05/12 07:01:55;;;;;;;10.73;3.40;;;29.10;44.90;;;;;;5015282;28;20378;-73
2022/05/12 07:04:24;;;;;;;12.02;3.38;;;29.40;44.20;;;;;;5014802;28;20191;-73
2022/05/12 07:06:50;;;;;;;11.45;3.50;;;;;;;;;;5014493;28;20103;-73
2022/05/12 07:09:18;;;;;;;12.00;3.30;;;;;;;;;;5014425;28;20077;-74
2022/05/12 07:11:45;;;;;;;10.52;3.10;;;;;;;;;;5014421;28;20128;-73
2022/05/12 07:14:10;;;;;;;10.32;3.08;;;30.00;41.80;;;;;;5013328;28;20050;-73
2022/05/12 07:16:36;;;;;;;11.63;3.33;;;30.20;41.90;;;;;;5014247;28;20060;-73
2022/05/12 07:19:02;;;;;;;10.02;3.55;;;30.60;40.70;;;;;;5014151;28;20057;-72
2022/05/12 07:26:56;;;;;;;9.48;3.20;;;30.40;38.70;;;;;;5014124;28;19922;-75
2022/05/12 07:29:27;;;;;;;12.07;2.95;;;30.50;39.50;;;;;;5014146;28;20052;-74
2022/05/12 07:31:54;;;;;;;9.73;3.00;;;30.50;39.40;;;;;;5014064;28;20054;-74
2022/05/12 07:34:20;;;;;;;9.70;2.92;;;30.90;39.00;;;;;;4996549;28;20140;-74
2022/05/12 07:36:52;;;;;;;11.95;3.70;;;31.10;37.70;;;;;;5012990;28;20050;-74
2022/05/12 07:39:22;;;;;;;10.30;2.92;;;31.10;37.80;;;;;;5014436;28;20042;-74
2022/05/12 07:41:48;;;;;;;8.40;3.28;;;31.10;38.00;;;;;;5012630;28;20466;-73
2022/05/12 07:44:16;;;;;;;10.95;3.22;;;31.20;37.70;;;;;;5013828;28;20048;-73
2022/05/12 07:46:42;;;;;;;10.95;3.25;;;31.20;36.90;;;;;;5014600;28;20148;-73
2022/05/12 07:49:08;;;;;;;10.15;4.03;;;31.10;36.60;;;;;;5013773;28;20486;-73
2022/05/12 07:51:34;;;;;;;9.35;2.97;;;31.10;37.20;;;;;;5012782;28;20052;-72
2022/05/12 07:53:59;;;;;;;10.07;3.03;;;31.30;36.90;;;;;;5013636;28;20457;-74
2022/05/12 07:56:27;;;;;;;9.18;3.05;;;31.50;36.70;;;;;;5013947;28;20049;-73
2022/05/12 07:58:54;;;;;;;8.10;3.00;;;31.50;35.80;;;;;;5013720;28;20053;-73
2022/05/12 08:01:21;;;;;;;7.03;2.97;;;31.70;36.20;;;;;;5013707;28;20042;-74
2022/05/12 08:03:47;;;;;;;9.82;3.30;;;31.50;36.30;;;;;;5013630;28;20401;-73
2022/05/12 08:06:15;;;;;;;11.15;3.60;;;31.40;36.20;;;;;;5013548;28;20042;-75
2022/05/12 08:08:42;;;;;;;10.00;3.30;;;31.20;38.20;;;;;;5013661;28;20129;-74
2022/05/12 08:11:08;;;;;;;8.30;3.00;;;31.20;45.70;;;;;;5013517;28;20049;-77
2022/05/12 08:13:34;;;;;;;10.52;3.13;;;31.10;43.30;;;;;;5014034;28;20042;-73
2022/05/12 08:16:01;;;;;;;9.68;3.10;;;;;;;;;;5012343;28;20075;-73
2022/05/12 08:18:27;;;;;;;9.00;2.47;;;30.20;74.30;;;;;;5012374;28;20585;-73
2022/05/12 08:20:54;;;;;;;7.07;2.42;;;;;;;;;;5012159;28;20058;-72
2022/05/12 08:23:20;;;;;;;8.13;2.13;;;29.30;68.20;;;;;;5013276;28;20054;-72
2022/05/12 08:25:47;;;;;;;11.48;2.80;;;28.40;37.20;;;;;;5012932;28;20065;-72
2022/05/12 08:28:17;;;;;;;9.60;3.00;;;;;;;;;;5013386;28;20375;-71
2022/05/12 08:30:45;;;;;;;9.23;3.00;;;27.00;37.90;;;;;;5018182;28;20060;-72
2022/05/12 08:33:11;;;;;;;10.15;2.97;;;26.50;39.20;;;;;;5017364;28;20061;-72
2022/05/12 08:35:37;;;;;;;7.88;2.63;;;;;;;;;;5049459;28;20053;-73
2022/05/12 08:38:04;;;;;;;11.27;2.72;;;25.30;40.80;;;;;;5017263;28;20161;-72
2022/05/12 08:40:50;;;;;;;10.00;3.13;;;25.00;41.00;;;;;;5017142;28;20069;-72
2022/05/12 08:43:22;;;;;;;9.98;2.95;;;;;;;;;;5017168;28;20133;-73
2022/05/12 08:45:50;;;;;;;9.23;2.67;;;24.30;42.30;;;;;;5017640;28;20054;-72
2022/05/12 08:48:17;;;;;;;7.95;2.20;;;24.10;42.30;;;;;;5017354;28;20057;-72
2022/05/12 08:50:48;;;;;;;10.65;2.80;;;23.70;43.00;;;;;;5016944;28;20038;-72
2022/05/12 08:53:20;;;;;;;7.80;2.37;;;23.40;44.10;;;;;;4999907;28;20046;-78
2022/05/12 08:55:54;;;;;;;6.27;2.40;;;23.20;44.80;;;;;;5016982;28;20054;-72
2022/05/12 08:58:20;;;;;;;;;;;;;;;;;;5017247;28;20049;-72
2022/05/12 09:01:01;;;;;;;9.00;2.10;;;22.70;45.50;;;;;;5015622;28;19929;-72
2022/05/12 09:03:30;;;;;;;8.43;2.50;;;;;;;;;;5016848;28;20080;-73
2022/05/12 09:06:13;;;;;;;9.70;2.30;;;22.20;46.40;;;;;;5015481;28;20478;-74
2022/05/12 09:09:03;;;;;;;8.00;2.03;;;22.20;47.10;;;;;;5015948;28;20053;-74
2022/05/12 09:11:33;;;;;;;9.13;2.20;;;;;;;;;;5016436;28;20410;-76
2022/05/12 09:14:00;;;;;;;8.83;2.47;;;;;;;;;;5015923;28;20062;-72
2022/05/12 09:16:31;;;;;;;9.67;2.40;;;;;;;;;;5016537;28;20053;-74
2022/05/12 09:18:59;;;;;;;6.83;2.10;;;22.20;66.40;;;;;;5015232;28;20049;-74
2022/05/12 09:21:32;;;;;;;10.40;2.40;;;22.00;47.90;;;;;;5016386;28;20119;-73
2022/05/12 09:23:57;;;;;;;7.83;2.07;;;22.00;65.30;;;;;;5016449;28;20050;-73
2022/05/12 09:27:05;;;;;;;6.93;2.03;;;21.90;47.70;;;;;;5016338;28;20105;-75
2022/05/12 09:29:31;;;;;;;8.10;2.20;;;21.70;47.30;;;;;;5015437;28;20121;-76
2022/05/12 09:32:03;;;;;;;7.43;2.37;;;;;;;;;;5031787;28;20541;-75
2022/05/12 09:34:43;;;;;;;7.90;1.90;;;21.30;47.90;;;;;;5016148;28;20072;-76
2022/05/12 09:37:26;;;;;;;6.80;1.80;;;21.30;49.20;;;;;;5016028;28;20383;-75
2022/05/12 09:39:55;;;;;;;13.03;2.30;;;21.10;49.20;;;;;;5014872;28;20054;-74
2022/05/12 09:42:27;;;;;;;8.17;2.03;;;21.00;47.80;;;;;;5016065;28;20159;-76
2022/05/12 09:45:06;;;;;;;10.80;1.93;;;21.10;74.50;;;;;;5016112;28;20093;-72
2022/05/12 09:47:33;;;;;;;7.23;1.83;;;;;;;;;;5014281;28;20128;-71
2022/05/12 09:50:16;;;;;;;7.93;1.80;;;20.70;46.60;;;;;;5015873;28;20052;-77
2022/05/12 09:52:43;;;;;;;6.23;2.00;;;;;;;;;;5048804;28;20050;-71
2022/05/12 09:55:15;;;;;;;9.83;2.00;;;;;;;;;;5014550;28;20045;-71
2022/05/12 09:57:55;;;;;;;7.27;2.20;;;20.40;47.90;;;;;;5015671;28;20513;-71
2022/05/12 10:00:32;;;;;;;7.40;2.33;;;20.30;48.70;;;;;;5016037;28;20050;-72
2022/05/12 10:09:16;;;;;;;7.80;1.80;;;20.20;50.70;;;;;;5015532;28;20065;-71
2022/05/12 10:12:02;;;;;;;5.87;1.80;;;20.20;50.70;;;;;;5015777;28;20053;-72
2022/05/12 10:14:39;;;;;;;5.67;1.90;;;20.30;50.70;;;;;;5015428;28;20046;-72
2022/05/12 10:17:21;;;;;;;6.40;2.13;;;20.20;50.30;;;;;;5016145;28;20096;-72
2022/05/12 10:19:48;;;;;;;5.97;2.13;;;20.20;50.80;;;;;;5015287;28;20052;-72
2022/05/12 10:22:25;;;;;;;6.70;1.80;;;20.10;50.30;;;;;;5047710;28;20081;-72
2022/05/12 10:25:17;;;;;;;7.20;1.77;;;20.00;49.60;;;;;;5015726;28;20054;-72
2022/05/12 10:27:58;;;;;;;5.43;1.70;;;19.90;50.40;;;;;;5010825;28;20108;-73
2022/05/12 10:30:36;;;;;;;8.57;1.93;;;19.80;50.70;;;;;;5015077;28;20042;-73
2022/05/12 10:33:30;;;;;;;6.50;2.40;;;19.80;50.60;;;;;;5015047;28;20046;-72
2022/05/12 10:36:22;;;;;;;8.00;1.70;;;19.70;50.90;;;;;;5014284;28;20050;-72
2022/05/12 10:38:54;;;;;;;5.80;2.07;;;19.70;50.80;;;;;;5007918;28;20053;-72
2022/05/12 10:41:29;;;;;;;9.37;2.20;;;19.70;52.20;;;;;;5014844;28;20056;-74
2022/05/12 10:44:18;;;;;;;7.73;1.80;;;19.90;51.90;;;;;;5014830;28;20056;-74
2022/05/12 10:46:53;;;;;;;5.57;2.10;;;19.90;51.50;;;;;;4998289;28;20058;-72
2022/05/12 10:49:27;;;;;;;5.70;1.43;;;19.90;51.20;;;;;;5014521;28;20378;-73
2022/05/12 10:52:09;;;;;;;8.70;1.83;;;19.90;51.80;;;;;;5014311;28;20096;-72
2022/05/12 10:54:53;;;;;;;4.47;1.60;;;19.90;51.90;;;;;;5046638;28;20041;-71
2022/05/12 10:57:35;;;;;;;5.93;1.77;;;19.90;51.70;;;;;;5014485;28;20052;-72
2022/05/12 11:00:12;;;;;;;6.77;1.97;;;20.00;52.20;;;;;;5014725;28;20398;-72
2022/05/12 11:02:47;;;;;;;4.83;1.90;;;20.00;51.80;;;;;;5013656;28;20058;-72
2022/05/12 11:05:30;;;;;;;8.87;2.30;;;20.00;51.90;;;;;;5014378;28;20048;-71
2022/05/12 11:08:22;;;;;;;25.10;2.57;;;20.00;52.20;;;;;;5014234;28;20124;-72
2022/05/12 11:10:52;;;;;;;9.57;2.60;;;20.00;52.10;;;;;;5003273;28;20068;-72
2022/05/12 11:13:43;;;;;;;6.50;1.87;;;20.00;52.20;;;;;;5013188;28;20050;-72
2022/05/12 11:16:17;;;;;;;5.80;2.03;;;20.00;51.60;;;;;;5013264;28;20046;-71
2022/05/12 11:18:46;;;;;;;;;;;19.90;51.50;;;;;;5047000;28;20050;-72
2022/05/12 11:21:19;;;;;;;7.43;2.20;;;19.80;51.70;;;;;;5014171;28;19928;-72
2022/05/12 11:24:23;;;;;;;8.77;2.60;;;19.70;52.40;;;;;;5014322;28;20041;-73
2022/05/12 11:27:13;;;;;;;5.50;1.80;;;19.80;53.10;;;;;;4972522;28;20169;-72
2022/05/12 11:29:56;;;;;;;6.40;2.00;;;19.80;54.10;;;;;;4956951;28;20054;-72
2022/05/12 11:32:42;;;;;;;7.53;2.23;;;19.80;53.10;;;;;;5003180;28;20493;-71
2022/05/12 11:35:37;;;;;;;6.17;2.00;;;19.70;53.10;;;;;;5013195;28;20053;-71
2022/05/12 11:38:06;;;;;;;9.52;2.17;;;19.60;52.90;;;;;;5014554;28;20124;-74
2022/05/12 11:40:43;;;;;;;8.27;2.13;;;19.60;52.80;;;;;;5013628;28;20038;-72
2022/05/12 11:46:47;;;;;;;7.73;2.07;;;19.30;53.30;;;;;;5013587;28;20072;-75
2022/05/12 11:49:36;;;;;;;8.50;2.17;;;19.20;54.30;;;;;;4996313;28;20056;-71
2022/05/12 11:52:21;;;;;;;5.90;2.20;;;19.20;54.00;;;;;;5014234;28;20431;-72
2022/05/12 11:54:54;;;;;;;9.02;2.05;;;19.10;54.30;;;;;;4996193;28;20111;-73
2022/05/12 11:57:29;;;;;;;6.43;2.70;;;19.10;54.00;;;;;;5013304;28;20493;-76
2022/05/12 11:59:59;;;;;;;7.00;2.30;;;19.10;54.20;;;;;;5014264;28;20050;-72
2022/05/12 12:02:28;;;;;;;9.20;2.63;;;19.20;53.50;;;;;;5012693;28;20065;-72
2022/05/12 12:05:00;;;;;;;9.97;2.30;;;19.20;53.70;;;;;;4995784;28;20077;-74
2022/05/12 12:07:32;;;;;;;6.67;2.33;;;19.30;53.90;;;;;;5045216;28;20076;-73
2022/05/12 12:10:10;;;;;;;7.00;2.40;;;19.30;53.20;;;;;;5013565;28;20050;-73
2022/05/12 12:12:43;;;;;;;5.63;2.00;;;;;;;;;;5012195;28;20452;-73
2022/05/12 12:15:37;;;;;;;8.23;2.47;;;;;;;;;;5013906;28;20496;-73
2022/05/12 12:18:18;;;;;;;7.03;2.60;;;;;;;;;;5013166;28;20057;-72
2022/05/12 12:20:46;;;;;;;5.47;2.10;;;;;;;;;;5012102;28;20085;-72
2022/05/12 12:23:33;;;;;;;7.00;2.00;;;;;;;;;;5013226;28;20056;-71
2022/05/12 12:26:01;;;;;;;5.70;2.00;;;;;;;;;;5011585;28;20070;-72
2022/05/12 12:28:46;;;;;;;8.13;1.77;;;19.10;52.50;;;;;;5012819;28;20050;-72
2022/05/12 12:31:30;;;;;;;5.43;2.10;;;19.00;52.60;;;;;;5012070;28;20058;-74
2022/05/12 12:34:14;;;;;;;5.88;2.13;;;19.00;53.20;;;;;;5012882;28;20088;-74
2022/05/12 12:36:48;;;;;;;6.70;1.77;;;19.00;53.80;;;;;;5011561;28;20498;-74
2022/05/12 12:39:44;;;;;;;5.63;1.50;;;19.00;54.20;;;;;;5013276;28;20046;-75
2022/05/12 12:42:30;;;;;;;7.53;2.33;;;19.20;52.70;;;;;;5011685;28;20058;-73
2022/05/12 12:45:13;;;;;;;5.87;1.77;;;19.10;53.40;;;;;;5012833;28;20058;-74
2022/05/12 12:47:43;;;;;;;5.60;2.23;;;19.20;52.90;;;;;;5013084;28;20494;-73
2022/05/12 12:50:21;;;;;;;8.37;2.13;;;19.20;52.30;;;;;;5013061;28;20076;-73
2022/05/12 12:52:50;;;;;;;6.73;1.70;;;19.20;51.80;;;;;;5013353;28;20049;-74
2022/05/12 12:58:40;;;;;;;4.63;1.43;;;19.30;52.40;;;;;;5013082;28;20062;-72
2022/05/12 13:01:16;;;;;;;6.20;2.00;;;19.20;51.80;;;;;;5045232;28;20137;-73
2022/05/12 13:04:00;;;;;;;6.60;2.07;;;19.10;52.00;;;;;;5012972;28;20046;-69
2022/05/12 13:06:34;;;;;;;12.17;2.57;;;19.10;52.20;;;;;;5012818;28;20050;-71
2022/05/12 13:09:05;;;;;;;;;;;19.10;51.90;;;;;;5013986;28;20108;-71
2022/05/12 13:11:31;;;;;;;5.77;1.77;;;19.10;52.20;;;;;;4995744;28;20432;-71
2022/05/12 13:13:57;;;;;;;5.67;1.83;;;19.10;51.40;;;;;;5014192;28;20046;-72
2022/05/12 13:16:38;;;;;;;6.23;1.87;;;19.10;51.80;;;;;;5016960;28;20482;-71
2022/05/12 13:19:05;;;;;;;7.00;1.83;;;19.10;51.10;;;;;;5016731;28;20374;-70
2022/05/12 13:21:51;;;;;;;6.77;1.80;;;19.00;51.70;;;;;;5016888;28;20398;-70
2022/05/12 13:24:27;;;;;;;6.43;2.07;;;19.10;51.10;;;;;;5014767;28;20050;-70
2022/05/12 13:26:57;;;;;;;6.27;1.77;;;19.00;51.40;;;;;;5016442;28;20483;-70
2022/05/12 13:29:31;;;;;;;7.37;1.60;;;19.00;51.80;;;;;;5016187;28;20061;-70
2022/05/12 13:32:06;;;;;;;8.05;2.67;;;19.10;52.20;;;;;;5016912;28;20351;-70
2022/05/12 13:34:33;;;;;;;4.40;1.50;;;19.10;52.20;;;;;;5016959;28;20375;-70
2022/05/12 13:37:20;;;;;;;5.60;1.80;;;19.10;51.90;;;;;;5015793;28;20477;-70